createdAt,value
2019-01-12T00:01:56.570Z,14.63
2019-01-12T00:04:56.083Z,14.80
2019-01-12T00:10:42.509Z,14.53
2019-01-12T00:13:42.568Z,14.70
2019-01-12T00:16:10.359Z,13.97
2019-01-12T00:19:09.786Z,15.67
2019-01-12T00:22:09.887Z,15.80
2019-01-12T00:25:09.932Z,16.00
2019-01-12T00:27:56.970Z,15.00
2019-01-12T00:30:56.403Z,15.07
2019-01-12T00:33:56.651Z,17.20
2019-01-12T00:36:24.481Z,16.90
2019-01-12T00:39:14.225Z,17.73
2019-01-12T00:42:13.692Z,18.33
2019-01-12T00:45:13.808Z,18.00
2019-01-12T00:47:41.902Z,17.63
2019-01-12T00:50:11.481Z,17.03
2019-01-12T00:59:12.701Z,16.43
2019-01-12T01:05:01.520Z,16.63
2019-01-12T01:08:01.853Z,16.43
2019-01-12T01:13:48.571Z,13.17
2019-01-12T01:16:48.641Z,13.67
2019-01-12T01:22:17.021Z,14.13
2019-01-12T01:28:18.028Z,14.17
2019-01-12T01:31:17.434Z,13.00
2019-01-12T01:34:17.630Z,13.23
2019-01-12T01:39:58.201Z,12.50
2019-01-12T01:42:58.483Z,12.40
2019-01-12T01:48:26.776Z,13.77
2019-01-12T01:51:27.158Z,13.63
2019-01-12T01:57:06.707Z,13.97
2019-01-12T02:00:06.331Z,14.50
2019-01-12T02:02:34.148Z,13.77
2019-01-12T02:05:33.607Z,14.23
2019-01-12T02:08:33.899Z,14.20
2019-01-12T02:14:34.663Z,14.43
2019-01-12T02:17:02.405Z,13.03
2019-01-12T02:19:42.191Z,13.00
2019-01-12T02:22:50.507Z,13.63
2019-01-12T02:25:18.277Z,13.33
2019-01-12T02:28:00.423Z,12.90
2019-01-12T02:30:49.478Z,12.90
2019-01-12T02:33:29.273Z,13.17
2019-01-12T02:35:56.813Z,13.17
2019-01-12T02:38:24.442Z,12.67
2019-01-12T02:40:52.061Z,13.20
2019-01-12T02:43:51.572Z,13.07
2019-01-12T02:46:19.216Z,13.00
2019-01-12T02:48:46.810Z,12.73
2019-01-12T02:51:14.406Z,13.77
2019-01-12T02:53:42.035Z,13.73
2019-01-12T02:56:09.605Z,13.37
2019-01-12T02:58:37.255Z,13.67
2019-01-12T03:01:05.243Z,13.07
2019-01-12T03:03:32.898Z,12.83
2019-01-12T03:06:00.521Z,13.27
2019-01-12T03:08:28.134Z,13.47
2019-01-12T03:10:58.602Z,13.53
2019-01-12T03:13:45.680Z,13.10
2019-01-12T03:16:54.062Z,12.80
2019-01-12T03:22:53.368Z,12.80
2019-01-12T03:25:53.620Z,12.70
2019-01-12T03:34:57.195Z,13.70
2019-01-12T03:37:57.460Z,13.97
2019-01-12T03:40:57.743Z,13.63
2019-01-12T03:43:57.900Z,14.47
2019-01-12T03:46:58.041Z,14.80
2019-01-12T03:49:25.985Z,14.47
2019-01-12T03:52:14.928Z,14.03
2019-01-12T03:55:04.065Z,14.80
2019-01-12T04:00:45.979Z,13.87
2019-01-12T04:03:54.298Z,13.57
2019-01-12T04:09:55.461Z,13.53
2019-01-12T04:12:55.690Z,14.97
2019-01-12T04:15:55.714Z,14.37
2019-01-12T04:18:55.760Z,14.60
2019-01-12T04:21:55.962Z,13.87
2019-01-12T04:24:56.003Z,13.80
2019-01-12T04:27:56.687Z,13.67
2019-01-12T04:33:18.639Z,13.60
2019-01-12T04:39:36.087Z,13.27
2019-01-12T04:42:35.887Z,13.80
2019-01-12T04:48:42.837Z,13.40
2019-01-12T04:55:00.669Z,14.40
2019-01-12T05:01:18.136Z,14.13
2019-01-12T05:03:58.318Z,14.13
2019-01-12T05:07:06.919Z,13.03
2019-01-12T05:12:46.586Z,12.87
2019-01-12T05:16:00.521Z,12.63
2019-01-12T05:19:00.189Z,13.37
2019-01-12T05:22:00.838Z,14.67
2019-01-12T05:25:01.377Z,15.10
2019-01-12T05:28:01.610Z,14.33
2019-01-12T05:30:48.830Z,13.60
2019-01-12T05:33:50.708Z,13.47
2019-01-12T05:36:50.649Z,14.97
2019-01-12T05:42:49.849Z,15.20
2019-01-12T05:48:49.395Z,15.97
2019-01-12T05:54:50.665Z,14.47
2019-01-12T06:00:51.944Z,16.37
2019-01-12T06:06:51.236Z,15.93
2019-01-12T06:12:50.489Z,15.13
2019-01-12T06:18:57.875Z,14.70
2019-01-12T06:24:58.208Z,16.93
2019-01-12T06:30:37.120Z,14.83
2019-01-12T06:36:45.901Z,16.93
2019-01-12T06:39:33.153Z,16.80
2019-01-12T06:42:20.220Z,17.10
2019-01-12T06:45:26.085Z,16.37
2019-01-12T06:48:34.453Z,17.10
2019-01-12T06:57:44.154Z,16.60
2019-01-12T07:00:31.204Z,15.77
2019-01-12T07:03:41.351Z,16.93
2019-01-12T07:09:40.681Z,17.73
2019-01-12T07:12:20.359Z,17.00
2019-01-12T07:15:28.619Z,17.40
2019-01-12T07:18:28.230Z,17.27
2019-01-12T07:26:58.449Z,17.93
2019-01-12T07:29:57.822Z,17.20
2019-01-12T07:33:06.241Z,17.87
2019-01-12T07:38:34.993Z,37.17
2019-01-12T07:41:13.938Z,31.43
2019-01-12T07:44:04.273Z,27.07
2019-01-12T07:46:54.230Z,22.77
2019-01-12T07:52:23.077Z,22.40
2019-01-12T07:57:55.483Z,23.10
2019-01-12T08:01:03.853Z,22.60
2019-01-12T08:06:32.230Z,17.20
2019-01-12T08:09:32.500Z,19.10
2019-01-12T08:12:32.648Z,18.53
2019-01-12T08:15:33.034Z,17.87
2019-01-12T08:18:33.174Z,15.33
2019-01-12T08:21:33.317Z,16.03
2019-01-12T08:24:33.543Z,14.17
2019-01-12T08:33:03.576Z,14.00
2019-01-12T08:35:58.528Z,14.33
2019-01-12T08:38:47.535Z,13.43
2019-01-12T08:41:47.154Z,13.87
2019-01-12T08:44:27.199Z,13.83
2019-01-12T08:50:35.739Z,17.17
2019-01-12T08:53:22.799Z,16.10
2019-01-12T08:56:11.739Z,15.20
2019-01-12T08:59:11.396Z,15.67
2019-01-12T09:01:52.112Z,16.30
2019-01-12T09:04:51.466Z,14.00
2019-01-12T09:07:50.941Z,13.83
2019-01-12T09:10:20.055Z,13.23
2019-01-12T09:12:47.756Z,13.07
2019-01-12T09:15:15.467Z,12.80
2019-01-12T09:20:24.125Z,12.40
2019-01-12T09:23:23.781Z,12.17
2019-01-12T09:26:12.726Z,13.50
2019-01-12T09:29:13.021Z,13.70
2019-01-12T09:32:13.143Z,13.57
2019-01-12T09:35:13.301Z,11.50
2019-01-12T09:38:13.401Z,10.77
2019-01-12T09:40:41.186Z,12.40
2019-01-12T09:43:41.171Z,12.37
2019-01-12T09:46:08.870Z,12.50
2019-01-12T09:49:08.267Z,11.37
2019-01-12T09:52:08.367Z,10.90
2019-01-12T09:54:36.131Z,10.63
2019-01-12T09:57:03.813Z,9.50
2019-01-12T09:59:31.531Z,10.67
2019-01-12T10:01:59.284Z,9.67
2019-01-12T10:04:27.091Z,10.20
2019-01-12T10:06:55.021Z,10.67
2019-01-12T10:09:22.756Z,10.03
2019-01-12T10:11:50.415Z,10.20
2019-01-12T10:14:18.094Z,10.90
2019-01-12T10:16:45.782Z,10.63
2019-01-12T10:19:13.622Z,9.80
2019-01-12T10:21:41.342Z,10.20
2019-01-12T10:24:09.181Z,9.37
2019-01-12T10:26:36.893Z,9.70
2019-01-12T10:29:16.951Z,8.10
2019-01-12T10:31:44.708Z,9.07
2019-01-12T10:34:12.538Z,8.70
2019-01-12T10:36:40.225Z,8.63
2019-01-12T10:39:08.055Z,9.40
2019-01-12T10:41:35.885Z,9.17
2019-01-12T10:44:36.124Z,8.50
2019-01-12T10:47:04.063Z,8.43
2019-01-12T10:49:31.783Z,7.73
2019-01-12T10:51:59.658Z,6.80
2019-01-12T10:54:27.337Z,7.57
2019-01-12T10:56:55.147Z,7.37
2019-01-12T10:59:22.794Z,7.23
2019-01-12T11:01:50.511Z,7.03
2019-01-12T11:04:18.247Z,7.20
2019-01-12T11:06:45.985Z,7.73
2019-01-12T11:09:45.464Z,8.07
2019-01-12T11:12:25.158Z,7.47
2019-01-12T11:15:25.144Z,7.60
2019-01-12T11:18:25.262Z,6.97
2019-01-12T11:21:24.579Z,7.33
2019-01-12T11:24:24.670Z,8.03
2019-01-12T11:27:04.456Z,7.30
2019-01-12T11:30:03.934Z,8.00
2019-01-12T11:32:44.371Z,8.17
2019-01-12T11:35:33.359Z,8.33
2019-01-12T11:38:33.376Z,8.20
2019-01-12T11:41:12.985Z,9.17
2019-01-12T11:44:12.684Z,8.60
2019-01-12T11:47:12.861Z,8.23
2019-01-12T11:50:13.055Z,8.80
2019-01-12T11:53:13.404Z,8.47
2019-01-12T11:55:41.217Z,8.70
2019-01-12T11:58:41.358Z,8.83
2019-01-12T12:01:09.089Z,9.07
2019-01-12T12:04:08.475Z,8.50
2019-01-12T12:06:36.234Z,8.03
2019-01-12T12:09:37.707Z,8.33
2019-01-12T12:12:05.546Z,8.47
2019-01-12T12:15:05.119Z,7.90
2019-01-12T12:17:32.973Z,7.90
2019-01-12T12:20:14.996Z,8.20
2019-01-12T12:22:42.660Z,7.13
2019-01-12T12:28:11.609Z,8.00
2019-01-12T12:30:41.122Z,8.47
2019-01-12T12:33:09.132Z,8.00
2019-01-12T12:41:51.029Z,8.60
2019-01-12T12:44:18.785Z,8.50
2019-01-12T12:47:18.937Z,7.60
2019-01-12T12:49:46.709Z,7.87
2019-01-12T12:52:14.484Z,8.77
2019-01-12T12:54:42.190Z,8.03
2019-01-12T12:57:41.875Z,8.10
2019-01-12T13:00:46.061Z,8.23
2019-01-12T13:03:13.761Z,8.37
2019-01-12T13:05:41.589Z,7.43
2019-01-12T13:08:41.392Z,8.33
2019-01-12T13:11:09.062Z,8.33
2019-01-12T13:16:37.514Z,7.73
2019-01-12T13:19:16.561Z,6.93
2019-01-12T13:21:44.434Z,7.63
2019-01-12T13:24:43.778Z,7.30
2019-01-12T13:27:11.562Z,7.73
2019-01-12T13:29:50.712Z,7.77
2019-01-12T13:32:18.462Z,7.80
2019-01-12T13:37:45.865Z,7.83
2019-01-12T13:40:46.821Z,8.50
2019-01-12T13:43:46.200Z,7.67
2019-01-12T13:46:13.942Z,8.07
2019-01-12T13:49:14.344Z,8.60
2019-01-12T13:52:02.402Z,9.13
2019-01-12T13:57:21.188Z,8.67
2019-01-12T14:00:21.438Z,9.03
2019-01-12T14:02:49.101Z,9.33
2019-01-12T14:05:16.852Z,9.40
2019-01-12T14:07:44.912Z,9.33
2019-01-12T14:13:16.676Z,9.10
2019-01-12T14:16:16.868Z,9.47
2019-01-12T14:21:25.382Z,7.70
2019-01-12T14:24:04.416Z,9.57
2019-01-12T14:26:44.459Z,9.37
2019-01-12T14:29:12.213Z,9.63
2019-01-12T14:32:12.050Z,9.23
2019-01-12T14:35:12.224Z,9.03
2019-01-12T14:37:39.955Z,9.57
2019-01-12T14:40:10.098Z,9.20
2019-01-12T14:42:37.841Z,9.23
2019-01-12T14:45:18.465Z,8.90
2019-01-12T14:47:46.276Z,8.97
2019-01-12T14:50:46.214Z,10.43
2019-01-12T14:53:45.794Z,8.80
2019-01-12T14:56:34.668Z,9.23
2019-01-12T14:59:34.130Z,9.60
2019-01-12T15:02:34.370Z,9.23
2019-01-12T15:05:36.041Z,8.70
2019-01-12T15:08:36.277Z,12.50
2019-01-12T15:11:04.101Z,12.10
2019-01-12T15:13:44.248Z,11.30
2019-01-12T15:16:24.752Z,12.03
2019-01-12T15:19:24.716Z,12.13
2019-01-12T15:21:52.390Z,12.50
2019-01-12T15:24:52.716Z,12.00
2019-01-12T15:27:20.476Z,13.10
2019-01-12T15:30:19.922Z,12.57
2019-01-12T15:33:01.575Z,12.27
2019-01-12T15:35:31.670Z,13.07
2019-01-12T15:47:01.301Z,18.83
2019-01-12T15:50:01.450Z,15.83
2019-01-12T15:52:41.078Z,14.60
2019-01-12T15:55:41.009Z,14.53
2019-01-12T15:58:41.194Z,13.43
2019-01-12T16:01:21.345Z,13.07
2019-01-12T16:07:16.668Z,12.07
2019-01-12T16:10:06.468Z,14.13
2019-01-12T16:13:05.892Z,13.60
